Time;durP1;ratioP1;P1;durP2;ratioP2;P2;SDS_P1;SDS_P2;PMS_P1;PMS_P2;Temp;Humidity;BMP_temperature;BMP_pressure;BME280_temperature;BME280_humidity;BME280_pressure;Samples;Min_cycle;Max_cycle;Signal;HPM_P1;HPM_P2
2023/09/17 00:01:15;;;;;;;8.43;5.20;;;;;;;;;;4991249;28;20050;-64
2023/09/17 00:04:08;;;;;;;6.53;4.75;;;;;;;;;;4989971;28;20050;-63
2023/09/17 00:06:56;;;;;;;7.13;4.55;;;;;;;;;;4990435;28;20051;-63
2023/09/17 00:09:56;;;;;;;6.97;4.80;;;;;;;;;;4988461;28;20061;-64
2023/09/17 00:12:44;;;;;;;8.88;5.03;;;;;;;;;;4988199;28;20446;-63
2023/09/17 00:15:38;;;;;;;9.48;5.68;;;;;;;;;;4973234;28;20640;-63
2023/09/17 00:18:25;;;;;;;7.72;4.57;;;;;;;;;;4985917;28;20403;-59
2023/09/17 00:21:19;;;;;;;6.15;4.65;;;;;;;;;;4987440;28;20502;-59
2023/09/17 00:24:06;;;;;;;5.88;4.22;;;;;;;;;;4984192;28;20133;-59
2023/09/17 00:27:00;;;;;;;6.65;4.25;;;;;;;;;;4987936;28;20054;-59
2023/09/17 00:29:48;;;;;;;8.48;5.18;;;;;;;;;;4979508;28;20109;-59
2023/09/17 00:32:42;;;;;;;7.15;4.80;;;;;;;;;;4987367;28;20069;-50
2023/09/17 00:35:29;;;;;;;11.98;5.97;;;;;;;;;;4985701;28;20066;-50
2023/09/17 00:38:23;;;;;;;7.88;5.30;;;;;;;;;;4984356;28;20134;-53
2023/09/17 00:41:10;;;;;;;6.85;4.63;;;;;;;;;;4982188;28;20105;-50
2023/09/17 00:44:04;;;;;;;6.35;4.60;;;;;;;;;;4982681;28;20661;-64
2023/09/17 00:46:51;;;;;;;8.98;5.35;;;;;;;;;;4982041;28;20109;-59
2023/09/17 00:49:45;;;;;;;6.85;5.28;;;;;;;;;;4985267;28;20511;-59
2023/09/17 00:52:35;;;;;;;10.45;5.13;;;;;;;;;;4985365;28;20062;-59
2023/09/17 00:55:29;;;;;;;8.30;5.40;;;;;;;;;;4986493;28;20054;-59
2023/09/17 00:58:17;;;;;;;11.70;6.28;;;;;;;;;;4988196;28;20082;-59
2023/09/17 01:01:14;;;;;;;11.60;6.03;;;;;;;;;;4986043;28;20506;-49
2023/09/17 01:04:01;;;;;;;8.48;5.38;;;;;;;;;;4986593;28;20073;-49
2023/09/17 01:06:56;;;;;;;10.20;5.40;;;;;;;;;;4978249;28;20997;-48
2023/09/17 01:09:57;;;;;;;8.90;5.03;;;;;;;;;;4999588;28;20676;-52
2023/09/17 01:12:51;;;;;;;8.07;5.70;;;;;;;;;;5003289;28;20081;-48
2023/09/17 01:15:27;;;;;;;10.60;6.25;;;;;;;;;;5004702;28;20058;-56
2023/09/17 01:18:02;;;;;;;12.95;7.40;;;;;;;;;;4995282;28;20046;-51
2023/09/17 01:20:31;;;;;;;13.82;6.90;;;;;;;;;;4998915;28;20152;-56
2023/09/17 01:23:39;;;;;;;14.35;7.20;;;;;;;;;;5007849;28;20046;-56
2023/09/17 01:26:36;;;;;;;11.48;5.18;;;;;;;;;;5002821;28;20054;-55
2023/09/17 01:29:34;;;;;;;6.47;4.45;;;;;;;;;;5003550;28;20487;-59
2023/09/17 01:32:27;;;;;;;8.10;4.82;;;;;;;;;;5005434;28;20062;-60
2023/09/17 01:35:15;;;;;;;12.52;6.32;;;;;;;;;;5000132;28;20061;-59
2023/09/17 01:38:12;;;;;;;12.48;5.63;;;;;;;;;;5000047;28;20109;-59
2023/09/17 01:40:59;;;;;;;8.48;6.47;;;;;;;;;;5007042;28;20050;-49
2023/09/17 01:43:55;;;;;;;14.32;7.50;;;;;;;;;;5001157;28;20050;-64
2023/09/17 01:46:43;;;;;;;11.88;6.60;;;;;;;;;;5005273;28;20124;-63
2023/09/17 01:49:37;;;;;;;9.02;5.88;;;;;;;;;;5000914;28;20585;-63
2023/09/17 01:52:32;;;;;;;13.30;7.00;;;;;;;;;;5008471;28;20506;-64
2023/09/17 01:55:22;;;;;;;17.38;7.68;;;;;;;;;;5005470;28;20049;-63
2023/09/17 01:58:10;;;;;;;14.20;7.53;;;;;;;;;;5003209;28;20532;-58
2023/09/17 02:01:03;;;;;;;17.25;8.05;;;;;;;;;;5004396;28;20062;-59
2023/09/17 02:04:00;;;;;;;17.95;8.75;;;;;;;;;;5003667;28;20080;-59
2023/09/17 02:06:53;;;;;;;21.75;9.32;;;;;;;;;;5006838;28;20069;-59
2023/09/17 02:09:47;;;;;;;15.30;6.85;;;;;;;;;;4994053;28;20093;-58
2023/09/17 02:12:34;;;;;;;11.10;6.85;;;;;;;;;;4987093;28;20054;-59
2023/09/17 02:15:29;;;;;;;13.45;7.40;;;;;;;;;;4984538;28;20062;-59
2023/09/17 02:18:16;;;;;;;14.75;7.70;;;;;;;;;;4986027;28;20138;-59
2023/09/17 02:21:10;;;;;;;13.93;7.50;;;;;;;;;;4993856;28;20105;-64
2023/09/17 02:23:57;;;;;;;12.48;7.50;;;;;;;;;;4989443;28;20125;-64
2023/09/17 02:26:51;;;;;;;17.20;8.18;;;;;;;;;;4987238;28;20050;-64
2023/09/17 02:29:38;;;;;;;12.90;8.10;;;;;;;;;;4988533;28;20050;-64
2023/09/17 02:32:32;;;;;;;11.88;6.32;;;;;;;;;;4992771;28;20046;-64
2023/09/17 02:35:00;;;;;;;14.75;7.97;;;;;;;;;;4993441;28;20198;-58
2023/09/17 02:37:53;;;;;;;11.63;7.45;;;;;;;;;;4987677;28;20108;-58
2023/09/17 02:40:40;;;;;;;14.80;7.78;;;;;;;;;;4990167;28;20581;-58
2023/09/17 02:43:40;;;;;;;15.55;8.25;;;;;;;;;;4981116;28;20050;-58
2023/09/17 02:46:27;;;;;;;12.38;7.15;;;;;;;;;;4988882;28;20526;-59
2023/09/17 02:49:22;;;;;;;12.75;8.10;;;;;;;;;;4989759;28;20054;-51
2023/09/17 02:52:10;;;;;;;17.60;9.70;;;;;;;;;;4990792;28;20058;-48
2023/09/17 02:55:04;;;;;;;19.52;10.02;;;;;;;;;;4994466;28;20827;-51
2023/09/17 02:57:50;;;;;;;20.00;10.40;;;;;;;;;;4984630;28;20093;-51
2023/09/17 03:00:44;;;;;;;21.52;10.13;;;;;;;;;;4990288;28;20054;-48
2023/09/17 03:03:31;;;;;;;18.40;10.13;;;;;;;;;;4994221;28;20054;-59
2023/09/17 03:06:25;;;;;;;14.55;9.98;;;;;;;;;;4989282;28;20144;-59
2023/09/17 03:09:25;;;;;;;13.45;9.82;;;;;;;;;;4991973;28;20061;-59
2023/09/17 03:12:19;;;;;;;13.52;9.43;;;;;;;;;;4988104;28;20060;-60
2023/09/17 03:15:13;;;;;;;13.82;8.90;;;;;;;;;;4983809;28;20053;-63
2023/09/17 03:18:00;;;;;;;14.98;8.93;;;;;;;;;;4978285;28;20145;-59
2023/09/17 03:20:54;;;;;;;19.17;8.38;;;;;;;;;;4983058;28;20061;-59
2023/09/17 03:23:41;;;;;;;15.32;8.23;;;;;;;;;;4986233;28;20509;-59
2023/09/17 03:26:35;;;;;;;13.68;8.68;;;;;;;;;;4978237;28;20105;-60
2023/09/17 03:29:24;;;;;;;14.70;7.95;;;;;;;;;;4990084;28;20065;-59
2023/09/17 03:32:15;;;;;;;13.27;7.63;;;;;;;;;;4992260;28;20050;-48
2023/09/17 03:35:15;;;;;;;7.20;5.05;;;;;;;;;;4988830;28;20046;-49
2023/09/17 03:38:16;;;;;;;6.40;3.92;;;;;;;;;;4987089;28;20050;-48
2023/09/17 03:41:04;;;;;;;5.25;3.30;;;;;;;;;;4991157;28;20085;-46
2023/09/17 03:43:58;;;;;;;13.68;3.10;;;;;;;;;;4989212;28;20613;-51
2023/09/17 03:46:45;;;;;;;10.32;3.35;;;;;;;;;;4988162;28;20058;-58
2023/09/17 03:49:39;;;;;;;3.78;2.70;;;;;;;;;;4979908;28;20058;-58
2023/09/17 03:52:32;;;;;;;3.28;2.30;;;;;;;;;;4984875;28;20129;-59
2023/09/17 03:55:26;;;;;;;3.60;1.88;;;;;;;;;;4976543;28;20069;-59
2023/09/17 03:58:14;;;;;;;3.60;1.75;;;;;;;;;;4988346;28;20121;-58
2023/09/17 04:01:08;;;;;;;2.30;1.85;;;;;;;;;;4987951;28;20073;-59
2023/09/17 04:03:54;;;;;;;2.97;1.77;;;;;;;;;;4986590;28;20058;-59
2023/09/17 04:06:48;;;;;;;4.53;1.80;;;;;;;;;;4976086;28;20050;-59
2023/09/17 04:09:42;;;;;;;3.47;1.58;;;;;;;;;;4980898;28;20062;-60
2023/09/17 04:12:43;;;;;;;3.17;1.80;;;;;;;;;;4987543;28;20521;-59
2023/09/17 04:15:31;;;;;;;4.53;1.77;;;;;;;;;;4987024;28;21513;-58
2023/09/17 04:18:25;;;;;;;1.70;1.40;;;;;;;;;;4986807;28;20526;-63
2023/09/17 04:21:12;;;;;;;3.92;1.30;;;;;;;;;;4985439;28;21341;-51
2023/09/17 04:24:06;;;;;;;1.27;1.02;;;;;;;;;;4987502;28;20046;-50
2023/09/17 04:26:56;;;;;;;1.67;1.10;;;;;;;;;;4987666;28;20469;-51
2023/09/17 04:29:50;;;;;;;1.83;1.13;;;;;;;;;;4977481;28;20105;-53
2023/09/17 04:32:37;;;;;;;1.65;1.00;;;;;;;;;;4976894;28;20064;-50
2023/09/17 04:35:32;;;;;;;1.42;1.25;;;;;;;;;;4978027;28;20069;-53
2023/09/17 04:38:19;;;;;;;3.40;0.80;;;;;;;;;;4979127;28;20074;-64
2023/09/17 04:41:12;;;;;;;1.20;0.93;;;;;;;;;;4982949;28;20114;-63
2023/09/17 04:44:00;;;;;;;1.65;1.10;;;;;;;;;;4986902;28;20054;-63
2023/09/17 04:46:56;;;;;;;0.95;0.80;;;;;;;;;;4983224;28;20061;-63
2023/09/17 04:49:43;;;;;;;0.75;0.70;;;;;;;;;;4970032;28;20597;-59
2023/09/17 04:52:37;;;;;;;1.02;0.93;;;;;;;;;;4986804;28;20113;-59
2023/09/17 04:55:24;;;;;;;1.75;0.60;;;;;;;;;;4985434;28;20060;-58
2023/09/17 04:58:18;;;;;;;2.45;0.63;;;;;;;;;;4984845;28;20109;-59
2023/09/17 05:01:06;;;;;;;0.90;0.70;;;;;;;;;;4984720;28;20058;-59
2023/09/17 05:03:59;;;;;;;2.53;0.93;;;;;;;;;;4984925;28;20049;-59
2023/09/17 05:06:46;;;;;;;2.42;0.75;;;;;;;;;;4983136;28;20050;-53
2023/09/17 05:09:53;;;;;;;2.25;0.68;;;;;;;;;;4984925;28;20140;-57
2023/09/17 05:12:48;;;;;;;2.58;0.60;;;;;;;;;;4986687;28;20061;-57
2023/09/17 05:15:42;;;;;;;3.13;0.70;;;;;;;;;;4981535;28;20061;-57
2023/09/17 05:18:29;;;;;;;1.95;0.50;;;;;;;;;;4966186;28;20058;-55
2023/09/17 05:21:23;;;;;;;1.17;0.85;;;;;;;;;;4985814;28;20082;-58
2023/09/17 05:24:10;;;;;;;1.08;0.65;;;;;;;;;;4987882;28;20050;-59
2023/09/17 05:27:04;;;;;;;0.90;0.60;;;;;;;;;;4976584;28;20050;-59
2023/09/17 05:29:51;;;;;;;0.30;0.30;;;;;;;;;;4986808;28;20054;-60
2023/09/17 05:32:45;;;;;;;2.22;0.70;;;;;;;;;;4985588;28;20141;-59
2023/09/17 05:35:34;;;;;;;1.58;0.60;;;;;;;;;;4985820;28;20057;-60
2023/09/17 05:38:28;;;;;;;2.30;0.50;;;;;;;;;;4984114;28;20055;-60
2023/09/17 05:41:16;;;;;;;0.30;0.30;;;;;;;;;;4970448;28;20054;-61
2023/09/17 05:44:09;;;;;;;0.45;0.32;;;;;;;;;;4986306;28;20050;-63
2023/09/17 05:46:56;;;;;;;1.05;0.52;;;;;;;;;;4989603;28;20058;-64
2023/09/17 05:49:50;;;;;;;0.52;0.50;;;;;;;;;;4971604;28;20058;-63
2023/09/17 05:52:37;;;;;;;0.90;0.47;;;;;;;;;;4968719;28;20054;-62
2023/09/17 05:55:12;;;;;;;0.90;0.63;;;;;;;;;;4988954;28;20058;-63
2023/09/17 05:57:59;;;;;;;0.57;0.30;;;;;;;;;;4989878;28;20078;-63
2023/09/17 06:00:53;;;;;;;1.88;0.70;;;;;;;;;;4988566;28;20666;-45
2023/09/17 06:03:41;;;;;;;3.50;0.52;;;;;;;;;;4986093;28;20054;-57
2023/09/17 06:06:34;;;;;;;1.77;0.52;;;;;;;;;;4985160;28;20576;-54
2023/09/17 06:09:28;;;;;;;3.25;0.73;;;;;;;;;;4990793;28;20046;-58
2023/09/17 06:12:29;;;;;;;0.52;0.50;;;;;;;;;;4988615;28;20058;-55
2023/09/17 06:15:17;;;;;;;2.25;0.50;;;;;;;;;;4989382;28;20592;-55
2023/09/17 06:18:11;;;;;;;1.60;0.70;;;;;;;;;;4987848;28;20077;-57
2023/09/17 06:20:58;;;;;;;0.52;0.50;;;;;;;;;;4972319;28;20113;-59
2023/09/17 06:23:53;;;;;;;2.40;0.60;;;;;;;;;;4978878;28;20059;-59
2023/09/17 06:26:46;;;;;;;3.20;0.68;;;;;;;;;;4975385;28;20050;-59
2023/09/17 06:29:39;;;;;;;0.50;0.50;;;;;;;;;;4979496;28;20105;-59
2023/09/17 06:32:34;;;;;;;0.95;0.60;;;;;;;;;;4976495;28;20093;-58
2023/09/17 06:35:28;;;;;;;0.75;0.73;;;;;;;;;;4976896;28;20065;-59
2023/09/17 06:38:15;;;;;;;2.33;0.80;;;;;;;;;;4983168;28;23718;-48
2023/09/17 06:41:09;;;;;;;0.55;0.55;;;;;;;;;;4977130;28;20125;-62
2023/09/17 06:43:36;;;;;;;4.38;0.80;;;;;;;;;;4972710;28;22199;-63
2023/09/17 06:46:30;;;;;;;1.25;0.60;;;;;;;;;;4977331;28;20136;-63
2023/09/17 06:49:18;;;;;;;3.40;0.85;;;;;;;;;;4969501;28;20062;-62
2023/09/17 06:52:11;;;;;;;1.27;0.60;;;;;;;;;;4979756;28;20514;-63
2023/09/17 06:54:58;;;;;;;2.17;0.60;;;;;;;;;;4970042;28;20577;-63
2023/09/17 06:57:32;;;;;;;2.13;0.70;;;;;;;;;;4967743;28;20062;-58
2023/09/17 07:00:20;;;;;;;0.45;0.40;;;;;;;;;;4974596;28;20054;-55
2023/09/17 07:03:14;;;;;;;0.98;0.68;;;;;;;;;;4974816;28;20057;-56
2023/09/17 07:06:01;;;;;;;1.33;0.70;;;;;;;;;;4973029;28;20062;-56
2023/09/17 07:08:55;;;;;;;0.95;0.82;;;;;;;;;;4973042;28;20046;-57
2023/09/17 07:11:48;;;;;;;1.50;0.55;;;;;;;;;;4979310;28;20545;-54
2023/09/17 07:14:42;;;;;;;0.80;0.57;;;;;;;;;;4986767;28;20101;-63
2023/09/17 07:17:29;;;;;;;8.93;1.45;;;;;;;;;;4985441;28;20053;-64
2023/09/17 07:20:23;;;;;;;0.75;0.57;;;;;;;;;;4982926;28;20707;-64
2023/09/17 07:23:10;;;;;;;1.05;0.80;;;;;;;;;;4981834;28;20061;-64
2023/09/17 07:26:06;;;;;;;0.65;0.52;;;;;;;;;;4940922;28;20294;-64
2023/09/17 07:28:51;;;;;;;2.15;0.80;;;;;;;;;;4983332;28;20046;-63
2023/09/17 07:31:47;;;;;;;2.25;0.60;;;;;;;;;;4973193;28;20046;-64
2023/09/17 07:34:32;;;;;;;5.60;1.02;;;;;;;;;;4985753;28;20054;-59
2023/09/17 07:37:26;;;;;;;3.58;0.60;;;;;;;;;;4985599;28;20050;-59
2023/09/17 07:40:17;;;;;;;1.05;0.88;;;;;;;;;;4987713;28;20050;-58
2023/09/17 07:43:06;;;;;;;0.63;0.52;;;;;;;;;;4986871;28;20046;-59
2023/09/17 07:45:34;;;;;;;0.77;0.65;;;;;;;;;;4983291;28;20145;-59
2023/09/17 07:48:29;;;;;;;0.77;0.77;;;;;;;;;;4983945;28;20049;-59
2023/09/17 07:51:16;;;;;;;0.52;0.50;;;;;;;;;;4984121;28;20146;-56
2023/09/17 07:54:10;;;;;;;0.85;0.70;;;;;;;;;;4982017;28;20054;-51
2023/09/17 07:56:57;;;;;;;1.38;0.60;;;;;;;;;;4983345;28;20502;-46
2023/09/17 07:59:52;;;;;;;0.98;0.70;;;;;;;;;;4984024;28;20080;-49
2023/09/17 08:02:38;;;;;;;1.05;0.70;;;;;;;;;;4983073;28;20111;-50
2023/09/17 08:05:33;;;;;;;0.75;0.60;;;;;;;;;;4982076;28;20055;-53
2023/09/17 08:08:01;;;;;;;1.25;1.08;;;;;;;;;;4985359;28;20090;-49
2023/09/17 08:10:42;;;;;;;1.02;0.80;;;;;;;;;;4984160;28;20073;-59
2023/09/17 08:13:30;;;;;;;1.30;0.60;;;;;;;;;;5004243;28;21456;-62
2023/09/17 08:16:25;;;;;;;0.85;0.70;;;;;;;;;;5001299;28;20058;-63
2023/09/17 08:19:12;;;;;;;0.95;0.68;;;;;;;;;;5002109;28;20797;-63
2023/09/17 08:22:06;;;;;;;0.40;0.40;;;;;;;;;;5001814;28;20062;-63
2023/09/17 08:24:53;;;;;;;0.98;0.65;;;;;;;;;;5000904;28;20053;-63
2023/09/17 08:27:47;;;;;;;0.98;0.70;;;;;;;;;;4992548;28;20384;-59
2023/09/17 08:30:38;;;;;;;0.98;0.80;;;;;;;;;;5003638;28;20063;-64
2023/09/17 08:33:32;;;;;;;1.08;0.77;;;;;;;;;;4997949;28;20053;-63
2023/09/17 08:36:21;;;;;;;2.40;0.80;;;;;;;;;;5004655;28;20572;-63
2023/09/17 08:39:14;;;;;;;1.52;0.93;;;;;;;;;;5007465;28;20112;-63
2023/09/17 08:42:01;;;;;;;0.68;0.60;;;;;;;;;;5003125;28;20055;-63
2023/09/17 08:44:59;;;;;;;0.80;0.57;;;;;;;;;;5001918;28;20057;-63
2023/09/17 08:47:47;;;;;;;1.55;0.52;;;;;;;;;;4988947;28;20058;-54
2023/09/17 08:50:40;;;;;;;1.13;0.80;;;;;;;;;;4994698;28;20119;-55
2023/09/17 08:53:31;;;;;;;1.17;0.70;;;;;;;;;;5002173;28;20662;-56
2023/09/17 08:56:25;;;;;;;1.02;0.60;;;;;;;;;;5006039;28;20054;-59
2023/09/17 08:59:17;;;;;;;1.20;0.80;;;;;;;;;;5003323;28;20057;-60
2023/09/17 09:02:16;;;;;;;1.90;0.95;;;;;;;;;;4995352;28;20502;-61
2023/09/17 09:05:04;;;;;;;1.10;0.80;;;;;;;;;;5005401;28;20054;-59
2023/09/17 09:07:58;;;;;;;0.65;0.47;;;;;;;;;;5006096;28;20049;-59
2023/09/17 09:10:51;;;;;;;1.27;0.80;;;;;;;;;;5011573;28;20073;-60
2023/09/17 09:13:53;;;;;;;1.40;0.65;;;;;;;;;;4999907;28;20078;-62
2023/09/17 09:16:39;;;;;;;0.95;0.85;;;;;;;;;;4997089;28;20444;-48
2023/09/17 09:19:33;;;;;;;2.85;0.60;;;;;;;;;;4994993;28;20056;-52
2023/09/17 09:22:20;;;;;;;1.20;0.90;;;;;;;;;;5001322;28;20062;-47
2023/09/17 09:25:14;;;;;;;0.70;0.60;;;;;;;;;;4998865;28;20443;-60
2023/09/17 09:28:02;;;;;;;1.20;1.07;;;;;;;;;;5001003;28;20101;-49
2023/09/17 09:30:57;;;;;;;1.42;1.05;;;;;;;;;;4995673;28;20116;-48
2023/09/17 09:33:44;;;;;;;0.95;0.60;;;;;;;;;;5001566;28;20109;-49
2023/09/17 09:36:42;;;;;;;1.33;0.82;;;;;;;;;;5000816;28;20104;-50
2023/09/17 09:39:25;;;;;;;1.25;0.70;;;;;;;;;;4993377;28;20144;-50
2023/09/17 09:42:19;;;;;;;1.70;0.90;;;;;;;;;;4991718;28;20454;-48
2023/09/17 09:45:12;;;;;;;1.85;0.88;;;;;;;;;;4989862;28;20045;-53
2023/09/17 09:48:06;;;;;;;;;;;;;;;;;;4994121;28;20597;-48
2023/09/17 09:50:53;;;;;;;4.10;0.93;;;;;;;;;;4989873;28;19928;-47
2023/09/17 09:53:48;;;;;;;0.95;0.55;;;;;;;;;;4996636;28;20050;-62
2023/09/17 09:56:41;;;;;;;1.48;1.00;;;;;;;;;;5001156;28;20584;-48
2023/09/17 09:59:36;;;;;;;1.23;0.85;;;;;;;;;;5000450;28;20065;-48
2023/09/17 10:02:24;;;;;;;1.05;0.90;;;;;;;;;;5000258;28;20501;-51
2023/09/17 10:05:18;;;;;;;1.40;0.70;;;;;;;;;;4989123;28;20054;-48
2023/09/17 10:08:05;;;;;;;1.40;0.90;;;;;;;;;;4996183;28;20061;-47
2023/09/17 10:11:05;;;;;;;2.92;1.00;;;;;;;;;;4990606;28;20058;-59
2023/09/17 10:13:53;;;;;;;3.25;0.95;;;;;;;;;;4971524;28;20116;-58
2023/09/17 10:16:48;;;;;;;0.90;0.65;;;;;;;;;;4982718;28;20446;-60
2023/09/17 10:19:37;;;;;;;1.63;1.20;;;;;;;;;;4983170;28;20055;-59
2023/09/17 10:22:31;;;;;;;1.30;1.00;;;;;;;;;;4963930;28;20065;-63
2023/09/17 10:25:24;;;;;;;1.95;1.25;;;;;;;;;;4981792;28;20054;-60
2023/09/17 10:28:19;;;;;;;1.15;0.85;;;;;;;;;;4980865;28;20069;-60
2023/09/17 10:31:07;;;;;;;2.22;1.10;;;;;;;;;;4978800;28;20062;-60
2023/09/17 10:34:01;;;;;;;1.45;1.02;;;;;;;;;;4981299;28;20057;-61
2023/09/17 10:36:49;;;;;;;1.25;1.10;;;;;;;;;;4981528;28;20059;-60
2023/09/17 10:39:43;;;;;;;1.15;0.98;;;;;;;;;;4985609;28;20400;-58
2023/09/17 10:42:31;;;;;;;1.08;0.98;;;;;;;;;;4984727;28;20683;-52
2023/09/17 10:45:26;;;;;;;1.17;0.98;;;;;;;;;;4988092;28;20058;-57
2023/09/17 10:48:15;;;;;;;2.25;1.25;;;;;;;;;;4984115;28;20054;-53
2023/09/17 10:51:08;;;;;;;2.83;1.10;;;;;;;;;;4968139;28;20059;-50
2023/09/17 10:54:03;;;;;;;1.30;1.17;;;;;;;;;;4985039;28;20062;-63
2023/09/17 10:56:56;;;;;;;1.20;1.05;;;;;;;;;;4985925;28;20062;-63
2023/09/17 10:59:51;;;;;;;2.05;1.00;;;;;;;;;;4985978;28;20687;-63
2023/09/17 11:02:39;;;;;;;1.23;1.07;;;;;;;;;;4987066;28;20050;-63
2023/09/17 11:05:35;;;;;;;1.67;1.10;;;;;;;;;;4986759;28;20069;-63
2023/09/17 11:08:22;;;;;;;1.80;1.00;;;;;;;;;;4986737;28;20506;-51
2023/09/17 11:11:31;;;;;;;2.00;1.30;;;;;;;;;;4988479;28;20046;-47
2023/09/17 11:14:25;;;;;;;1.42;1.10;;;;;;;;;;4974802;28;20058;-49
2023/09/17 11:17:19;;;;;;;2.33;1.08;;;;;;;;;;4969858;28;20049;-49
2023/09/17 11:20:12;;;;;;;2.38;1.35;;;;;;;;;;4982834;28;20108;-59
2023/09/17 11:23:04;;;;;;;4.75;1.40;;;;;;;;;;4981619;28;20481;-59
2023/09/17 11:25:51;;;;;;;1.83;0.95;;;;;;;;;;4988411;28;20046;-59
2023/09/17 11:28:45;;;;;;;5.72;1.23;;;;;;;;;;4984211;28;20128;-60
2023/09/17 11:31:27;;;;;;;2.30;1.30;;;;;;;;;;4981732;28;20062;-59
2023/09/17 11:34:21;;;;;;;1.25;0.93;;;;;;;;;;4984760;28;20050;-59
2023/09/17 11:37:08;;;;;;;1.40;1.20;;;;;;;;;;4980419;28;20466;-60
2023/09/17 11:40:05;;;;;;;2.88;1.52;;;;;;;;;;4982218;28;20069;-63
2023/09/17 11:42:52;;;;;;;3.08;1.10;;;;;;;;;;4985528;28;20633;-63
2023/09/17 11:45:47;;;;;;;1.17;1.00;;;;;;;;;;4987595;28;20058;-62
2023/09/17 11:48:37;;;;;;;1.58;1.00;;;;;;;;;;4981842;28;20415;-63
2023/09/17 11:51:34;;;;;;;3.05;1.20;;;;;;;;;;4981264;28;20392;-63
2023/09/17 11:54:25;;;;;;;1.50;1.17;;;;;;;;;;4985414;28;20058;-65
2023/09/17 11:57:22;;;;;;;1.88;1.20;;;;;;;;;;4981336;28;20422;-59
2023/09/17 12:00:09;;;;;;;1.20;1.10;;;;;;;;;;4984436;28;20053;-57
2023/09/17 12:03:03;;;;;;;1.92;1.38;;;;;;;;;;4978840;28;20062;-57
2023/09/17 12:05:50;;;;;;;3.38;1.40;;;;;;;;;;4982881;28;20047;-55
2023/09/17 12:08:46;;;;;;;1.92;1.48;;;;;;;;;;4981818;28;20050;-57
2023/09/17 12:11:39;;;;;;;1.95;1.30;;;;;;;;;;4712712;28;8186672;-56
2023/09/17 12:14:41;;;;;;;;;;;;;;;;;;5001183;28;20057;-60
2023/09/17 12:17:27;;;;;;;2.67;1.50;;;;;;;;;;4998870;28;20385;-59
2023/09/17 12:20:48;;;;;;;2.75;1.60;;;;;;;;;;4995010;28;20429;-60
2023/09/17 12:23:37;;;;;;;2.17;1.23;;;;;;;;;;5000149;28;20477;-60
2023/09/17 12:26:23;;;;;;;1.83;1.20;;;;;;;;;;5002493;28;20042;-60
2023/09/17 12:29:17;;;;;;;1.33;1.15;;;;;;;;;;5001923;28;20073;-60
2023/09/17 12:32:05;;;;;;;2.65;1.30;;;;;;;;;;5001939;28;20113;-62
2023/09/17 12:34:59;;;;;;;1.85;1.60;;;;;;;;;;5002857;28;20054;-62
2023/09/17 12:37:54;;;;;;;2.05;1.42;;;;;;;;;;4990815;28;20058;-62
2023/09/17 12:40:41;;;;;;;;;;;;;;;;;;5004919;28;20057;-62
2023/09/17 12:43:35;;;;;;;3.58;1.60;;;;;;;;;;5004735;28;19922;-62
2023/09/17 12:46:23;;;;;;;2.88;1.90;;;;;;;;;;5006005;28;20058;-62
2023/09/17 12:49:17;;;;;;;6.05;1.80;;;;;;;;;;5004636;28;20049;-61
2023/09/17 12:52:04;;;;;;;3.03;1.52;;;;;;;;;;5002995;28;20057;-62
2023/09/17 12:55:00;;;;;;;3.78;1.80;;;;;;;;;;4997094;28;20078;-63
2023/09/17 12:57:49;;;;;;;2.57;1.90;;;;;;;;;;5000512;28;20433;-63
2023/09/17 13:00:43;;;;;;;6.03;2.00;;;;;;;;;;5004575;28;20049;-62
2023/09/17 13:03:30;;;;;;;3.17;1.77;;;;;;;;;;5002906;28;20050;-62
2023/09/17 13:06:24;;;;;;;2.63;1.80;;;;;;;;;;4998866;28;20053;-62
2023/09/17 13:09:12;;;;;;;2.40;1.83;;;;;;;;;;5001275;28;20086;-49
2023/09/17 13:12:16;;;;;;;2.42;1.83;;;;;;;;;;5002704;28;20140;-59
2023/09/17 13:15:03;;;;;;;3.08;1.70;;;;;;;;;;5000818;28;20125;-59
2023/09/17 13:17:58;;;;;;;3.00;1.70;;;;;;;;;;4991886;28;20509;-59
2023/09/17 13:20:46;;;;;;;2.40;1.70;;;;;;;;;;4999918;28;20073;-58
2023/09/17 13:23:47;;;;;;;3.70;2.30;;;;;;;;;;4998084;28;20057;-59
2023/09/17 13:26:35;;;;;;;2.30;1.73;;;;;;;;;;4994404;28;20143;-60
2023/09/17 13:29:40;;;;;;;2.38;1.70;;;;;;;;;;5004129;28;20108;-62
2023/09/17 13:32:32;;;;;;;2.13;1.75;;;;;;;;;;5000171;28;20108;-58
2023/09/17 13:35:22;;;;;;;2.22;1.63;;;;;;;;;;4996267;28;20058;-59
2023/09/17 13:38:16;;;;;;;2.58;1.60;;;;;;;;;;5000186;28;20058;-59
2023/09/17 13:41:10;;;;;;;2.15;1.60;;;;;;;;;;5001713;28;20120;-59
2023/09/17 13:43:58;;;;;;;2.40;1.55;;;;;;;;;;4998023;28;20057;-59
2023/09/17 13:46:32;;;;;;;5.13;1.88;;;;;;;;;;4998696;28;20089;-47
2023/09/17 13:49:19;;;;;;;2.75;1.70;;;;;;;;;;5001331;28;20594;-58
2023/09/17 13:52:14;;;;;;;2.42;1.70;;;;;;;;;;4999029;28;20069;-59
2023/09/17 13:55:01;;;;;;;2.55;2.00;;;;;;;;;;4998143;28;20046;-58
2023/09/17 13:57:55;;;;;;;1.90;1.42;;;;;;;;;;5000452;28;20050;-59
2023/09/17 14:00:42;;;;;;;1.35;1.23;;;;;;;;;;5002590;28;20085;-58
2023/09/17 14:03:36;;;;;;;2.70;1.25;;;;;;;;;;4980254;28;20050;-61
2023/09/17 14:06:24;;;;;;;1.77;1.50;;;;;;;;;;4987468;28;20070;-57
2023/09/17 14:08:58;;;;;;;1.88;1.30;;;;;;;;;;4991509;28;20568;-60
2023/09/17 14:11:32;;;;;;;3.53;1.95;;;;;;;;;;4998816;28;20058;-59
2023/09/17 14:14:26;;;;;;;2.03;1.42;;;;;;;;;;4988953;28;20066;-59
2023/09/17 14:17:20;;;;;;;3.28;1.50;;;;;;;;;;5003006;28;20105;-60
2023/09/17 14:20:21;;;;;;;2.08;1.60;;;;;;;;;;4999089;28;20065;-59
2023/09/17 14:23:08;;;;;;;2.00;1.50;;;;;;;;;;4996112;28;20058;-60
2023/09/17 14:26:02;;;;;;;2.85;1.58;;;;;;;;;;5001245;28;20108;-63
2023/09/17 14:28:49;;;;;;;2.75;1.80;;;;;;;;;;5002571;28;20045;-62
2023/09/17 14:31:43;;;;;;;2.40;1.50;;;;;;;;;;5000940;28;20506;-63
2023/09/17 14:34:30;;;;;;;3.70;1.65;;;;;;;;;;4998318;28;20062;-62
2023/09/17 14:37:25;;;;;;;3.22;1.52;;;;;;;;;;5000842;28;20054;-62
2023/09/17 14:40:12;;;;;;;2.78;1.83;;;;;;;;;;5000948;28;20713;-52
2023/09/17 14:43:06;;;;;;;1.90;1.45;;;;;;;;;;4986977;28;20073;-49
2023/09/17 14:45:53;;;;;;;3.60;1.88;;;;;;;;;;5003944;28;20490;-62
2023/09/17 14:48:48;;;;;;;3.55;2.08;;;;;;;;;;4995376;28;20438;-61
2023/09/17 14:51:34;;;;;;;1.83;1.63;;;;;;;;;;4989162;28;20627;-61
2023/09/17 14:54:28;;;;;;;2.03;1.70;;;;;;;;;;5007650;28;20057;-60
2023/09/17 14:57:18;;;;;;;5.22;1.88;;;;;;;;;;4993204;28;20068;-61
2023/09/17 15:00:14;;;;;;;2.72;1.60;;;;;;;;;;5003467;28;20053;-50
2023/09/17 15:03:00;;;;;;;2.70;1.90;;;;;;;;;;4996686;28;20180;-59
2023/09/17 15:05:53;;;;;;;3.42;1.88;;;;;;;;;;5007493;28;20527;-59
2023/09/17 15:08:40;;;;;;;7.10;1.95;;;;;;;;;;5004264;28;20650;-60
2023/09/17 15:11:41;;;;;;;2.63;2.10;;;;;;;;;;4993416;28;20120;-59
2023/09/17 15:14:28;;;;;;;4.32;2.40;;;;;;;;;;5000566;28;21124;-60
2023/09/17 15:17:23;;;;;;;3.80;2.50;;;;;;;;;;5004486;28;20049;-62
2023/09/17 15:20:10;;;;;;;5.10;2.78;;;;;;;;;;5000719;28;20054;-62
2023/09/17 15:23:03;;;;;;;3.15;2.40;;;;;;;;;;4999601;28;20054;-64
2023/09/17 15:25:50;;;;;;;3.65;1.88;;;;;;;;;;5002029;28;20053;-63
2023/09/17 15:28:45;;;;;;;5.43;2.03;;;;;;;;;;5003425;28;20046;-63
2023/09/17 15:31:33;;;;;;;2.50;1.70;;;;;;;;;;4985555;28;20049;-63
2023/09/17 15:34:28;;;;;;;2.45;1.60;;;;;;;;;;5001994;28;20069;-62
2023/09/17 15:37:15;;;;;;;1.70;1.40;;;;;;;;;;5000405;28;20169;-48
2023/09/17 15:40:09;;;;;;;2.00;1.42;;;;;;;;;;4998083;28;20049;-61
2023/09/17 15:42:57;;;;;;;2.67;1.60;;;;;;;;;;4999874;28;20770;-62
2023/09/17 15:45:51;;;;;;;2.45;1.42;;;;;;;;;;4999729;28;20450;-61
2023/09/17 15:48:38;;;;;;;4.38;1.50;;;;;;;;;;4998366;28;20054;-62
2023/09/17 15:51:32;;;;;;;1.83;1.30;;;;;;;;;;4994088;28;20084;-61
2023/09/17 15:54:19;;;;;;;2.63;1.33;;;;;;;;;;5000450;28;20049;-60
2023/09/17 15:57:13;;;;;;;2.40;1.38;;;;;;;;;;5001610;28;20402;-50
2023/09/17 16:00:00;;;;;;;1.75;1.15;;;;;;;;;;5000655;28;20045;-50
2023/09/17 16:02:34;;;;;;;3.00;1.35;;;;;;;;;;5002263;28;20057;-46
2023/09/17 16:05:23;;;;;;;3.45;1.30;;;;;;;;;;4999287;28;20116;-47
2023/09/17 16:08:16;;;;;;;2.40;1.40;;;;;;;;;;5001687;28;20049;-45
2023/09/17 16:11:10;;;;;;;2.70;1.38;;;;;;;;;;5002049;28;20058;-50
2023/09/17 16:14:04;;;;;;;1.40;1.17;;;;;;;;;;4999933;28;20053;-64
2023/09/17 16:16:53;;;;;;;2.45;1.00;;;;;;;;;;5002593;28;20101;-46
2023/09/17 16:19:28;;;;;;;3.15;1.35;;;;;;;;;;5002530;28;20172;-49
2023/09/17 16:21:56;;;;;;;2.67;2.10;;;;;;;;;;4994575;28;20077;-47
2023/09/17 16:24:30;;;;;;;3.60;2.38;;;;;;;;;;5000903;28;20057;-45
2023/09/17 16:26:57;;;;;;;;;;;;;;;;;;5001922;28;20061;-46
2023/09/17 16:29:51;;;;;;;2.78;2.17;;;;;;;;;;5003241;28;19929;-52
2023/09/17 16:32:38;;;;;;;3.50;2.85;;;;;;;;;;4999953;28;20049;-64
2023/09/17 16:35:32;;;;;;;4.32;2.65;;;;;;;;;;4997628;28;20054;-59
2023/09/17 16:38:20;;;;;;;4.32;2.70;;;;;;;;;;5001806;28;20490;-60
2023/09/17 16:41:14;;;;;;;3.50;2.70;;;;;;;;;;4999558;28;20498;-59
2023/09/17 16:44:00;;;;;;;3.95;2.67;;;;;;;;;;5002731;28;20588;-59
2023/09/17 16:46:54;;;;;;;5.05;2.90;;;;;;;;;;4999959;28;20627;-59
2023/09/17 16:49:48;;;;;;;6.57;2.90;;;;;;;;;;4998347;28;20073;-64
2023/09/17 16:52:36;;;;;;;3.13;2.78;;;;;;;;;;5001155;28;20050;-63
2023/09/17 16:55:29;;;;;;;5.70;2.70;;;;;;;;;;4993867;28;20140;-61
2023/09/17 16:58:03;;;;;;;5.80;3.10;;;;;;;;;;5002343;28;20042;-62
2023/09/17 17:00:31;;;;;;;;;;;;;;;;;;4998061;28;20057;-63
2023/09/17 17:02:58;;;;;;;5.00;2.67;;;;;;;;;;4997773;28;19933;-62